createdAt,value
2022-11-24T00:00:28.656Z,93.39
2022-11-24T00:02:55.669Z,93.22
2022-11-24T00:05:23.782Z,93.26
2022-11-24T00:07:50.617Z,93.01
2022-11-24T00:10:17.677Z,93.36
2022-11-24T00:12:44.565Z,93.14
2022-11-24T00:15:11.365Z,93.34
2022-11-24T00:17:38.181Z,93.23
2022-11-24T00:20:05.824Z,93.29
2022-11-24T00:22:32.796Z,93.51
2022-11-24T00:24:59.668Z,93.52
2022-11-24T00:27:26.543Z,93.56
2022-11-24T00:29:53.563Z,93.52
2022-11-24T00:32:20.400Z,93.27
2022-11-24T00:34:47.465Z,93.10
2022-11-24T00:37:14.534Z,93.00
2022-11-24T00:39:41.305Z,93.21
2022-11-24T00:42:08.218Z,93.10
2022-11-24T00:44:35.334Z,93.17
2022-11-24T00:47:04.381Z,92.97
2022-11-24T00:49:31.328Z,93.33
2022-11-24T00:51:58.247Z,93.41
2022-11-24T00:54:25.023Z,93.51
2022-11-24T00:56:51.886Z,93.40
2022-11-24T00:59:24.811Z,93.02
2022-11-24T01:01:52.192Z,92.99
2022-11-24T01:04:19.100Z,92.83
2022-11-24T01:06:45.910Z,92.98
2022-11-24T01:09:12.888Z,92.83
2022-11-24T01:11:58.354Z,92.95
2022-11-24T01:14:25.559Z,93.07
2022-11-24T01:16:52.411Z,92.94
2022-11-24T01:19:19.472Z,92.84
2022-11-24T01:21:46.299Z,92.61
2022-11-24T01:24:13.391Z,92.59
2022-11-24T01:26:40.293Z,92.46
2022-11-24T01:29:07.247Z,92.52
2022-11-24T01:31:34.356Z,92.51
2022-11-24T01:34:01.202Z,92.28
2022-11-24T01:36:28.053Z,92.39
2022-11-24T01:38:55.048Z,92.22
2022-11-24T01:41:23.039Z,91.87
2022-11-24T01:43:50.071Z,91.96
2022-11-24T01:46:24.879Z,91.76
2022-11-24T01:49:04.049Z,91.71
2022-11-24T01:51:31.781Z,91.39
2022-11-24T01:54:12.074Z,91.43
2022-11-24T01:56:44.428Z,91.61
2022-11-24T01:59:11.653Z,91.53
2022-11-24T02:01:38.575Z,91.53
2022-11-24T02:04:06.779Z,91.51
2022-11-24T02:06:33.681Z,91.67
2022-11-24T02:09:00.458Z,91.51
2022-11-24T02:11:28.753Z,91.51
2022-11-24T02:13:55.712Z,91.37
2022-11-24T02:16:22.532Z,91.28
2022-11-24T02:18:49.630Z,91.44
2022-11-24T02:21:16.504Z,91.34
2022-11-24T02:23:49.703Z,90.66
2022-11-24T02:26:35.123Z,90.39
2022-11-24T02:29:02.355Z,90.29
2022-11-24T02:31:29.254Z,90.36
2022-11-24T02:33:56.203Z,90.71
2022-11-24T02:36:23.042Z,90.63
2022-11-24T02:38:49.896Z,90.44
2022-11-24T02:41:18.248Z,90.52
2022-11-24T02:43:58.862Z,90.24
2022-11-24T02:46:25.867Z,90.51
2022-11-24T02:48:52.704Z,90.52
2022-11-24T02:51:25.568Z,90.56
2022-11-24T02:53:53.041Z,90.77
2022-11-24T02:56:19.842Z,90.95
2022-11-24T02:58:46.690Z,90.69
2022-11-24T03:01:13.794Z,90.67
2022-11-24T03:03:40.669Z,90.52
2022-11-24T03:06:08.263Z,90.84
2022-11-24T03:08:35.180Z,90.77
2022-11-24T03:11:02.437Z,90.99
2022-11-24T03:13:29.316Z,90.90
2022-11-24T03:15:56.391Z,90.90
2022-11-24T03:18:23.255Z,90.75
2022-11-24T03:20:50.093Z,90.84
2022-11-24T03:23:17.056Z,90.82
2022-11-24T03:25:43.939Z,90.70
2022-11-24T03:28:10.815Z,90.65
2022-11-24T03:30:37.834Z,90.39
2022-11-24T03:33:05.225Z,90.00
2022-11-24T03:35:32.064Z,89.96
2022-11-24T03:37:59.090Z,89.68
2022-11-24T03:40:25.930Z,89.82
2022-11-24T03:42:52.743Z,89.75
2022-11-24T03:48:07.425Z,89.64
2022-11-24T03:50:34.291Z,89.57
2022-11-24T03:53:01.103Z,89.68
2022-11-24T03:55:28.073Z,89.68
2022-11-24T03:57:55.017Z,89.67
2022-11-24T04:00:21.859Z,89.99
2022-11-24T04:02:48.872Z,89.67
2022-11-24T04:05:15.853Z,89.27
2022-11-24T04:07:42.736Z,89.49
2022-11-24T04:10:09.869Z,89.53
2022-11-24T04:12:46.750Z,89.82
2022-11-24T04:15:21.689Z,89.44
2022-11-24T04:17:50.149Z,88.96
2022-11-24T04:20:17.202Z,88.98
2022-11-24T04:22:44.220Z,88.81
2022-11-24T04:25:11.405Z,89.05
2022-11-24T04:27:39.511Z,88.93
2022-11-24T04:30:06.857Z,89.12
2022-11-24T04:32:33.766Z,89.01
2022-11-24T04:35:00.948Z,88.71
2022-11-24T04:37:28.221Z,88.47
2022-11-24T04:39:55.617Z,88.46
2022-11-24T04:42:22.450Z,88.26
2022-11-24T04:44:49.257Z,88.34
2022-11-24T04:47:16.693Z,88.08
2022-11-24T04:49:43.655Z,88.02
2022-11-24T04:52:11.624Z,88.11
2022-11-24T04:54:38.575Z,88.06
2022-11-24T04:57:05.416Z,88.01
2022-11-24T04:59:32.260Z,88.18
2022-11-24T05:01:59.191Z,88.22
2022-11-24T05:04:39.880Z,88.28
2022-11-24T05:07:16.447Z,88.27
2022-11-24T05:10:03.821Z,88.42
2022-11-24T05:12:31.565Z,88.45
2022-11-24T05:14:59.257Z,88.70
2022-11-24T05:17:35.903Z,88.79
2022-11-24T05:20:02.999Z,88.80
2022-11-24T05:22:30.527Z,88.96
2022-11-24T05:24:57.843Z,88.64
2022-11-24T05:27:24.819Z,88.73
2022-11-24T05:29:51.659Z,88.51
2022-11-24T05:32:18.519Z,88.61
2022-11-24T05:34:45.687Z,88.48
2022-11-24T05:37:13.509Z,88.27
2022-11-24T05:39:40.375Z,88.20
2022-11-24T05:42:26.239Z,88.08
2022-11-24T05:44:53.390Z,87.95
2022-11-24T05:47:20.459Z,87.79
2022-11-24T05:49:47.422Z,87.54
2022-11-24T05:52:14.383Z,87.39
2022-11-24T05:54:41.180Z,87.09
2022-11-24T05:57:08.011Z,87.27
2022-11-24T05:59:34.985Z,87.45
2022-11-24T06:02:01.991Z,87.45
2022-11-24T06:04:29.005Z,87.04
2022-11-24T06:06:55.771Z,86.89
2022-11-24T06:09:24.615Z,86.85
2022-11-24T06:11:51.493Z,87.02
2022-11-24T06:14:18.319Z,86.75
2022-11-24T06:16:45.424Z,86.84
2022-11-24T06:19:12.297Z,86.82
2022-11-24T06:21:39.123Z,86.87
2022-11-24T06:24:06.181Z,86.75
2022-11-24T06:26:33.031Z,86.36
2022-11-24T06:28:59.896Z,86.35
2022-11-24T06:31:26.915Z,85.99
2022-11-24T06:33:53.777Z,86.00
2022-11-24T06:36:20.659Z,85.57
2022-11-24T06:38:47.563Z,85.45
2022-11-24T06:41:14.984Z,85.65
2022-11-24T06:43:42.091Z,85.70
2022-11-24T06:46:09.172Z,85.77
2022-11-24T06:48:36.060Z,85.46
2022-11-24T06:51:04.582Z,85.62
2022-11-24T06:53:31.923Z,85.43
2022-11-24T06:56:02.455Z,85.19
2022-11-24T06:58:29.307Z,85.40
2022-11-24T07:00:56.222Z,85.46
2022-11-24T07:03:23.194Z,85.31
2022-11-24T07:05:50.085Z,85.46
2022-11-24T07:08:18.119Z,85.40
2022-11-24T07:10:48.121Z,85.41
2022-11-24T07:13:15.195Z,85.38
2022-11-24T07:15:42.101Z,85.71
2022-11-24T07:18:08.901Z,85.48
2022-11-24T07:20:35.938Z,85.43
2022-11-24T07:23:04.431Z,85.53
2022-11-24T07:25:38.713Z,85.39
2022-11-24T07:28:05.984Z,85.38
2022-11-24T07:30:32.984Z,85.10
2022-11-24T07:33:01.251Z,84.85
2022-11-24T07:35:32.692Z,84.94
2022-11-24T07:37:59.585Z,84.98
2022-11-24T07:40:30.351Z,84.45
2022-11-24T07:42:57.510Z,84.48
2022-11-24T07:45:26.472Z,84.62
2022-11-24T07:47:53.425Z,84.52
2022-11-24T07:50:20.786Z,84.26
2022-11-24T07:52:48.231Z,84.58
2022-11-24T07:55:15.423Z,84.38
2022-11-24T07:57:42.337Z,84.33
2022-11-24T08:00:12.264Z,84.03
2022-11-24T08:02:39.406Z,84.01
2022-11-24T08:05:06.721Z,83.80
2022-11-24T08:07:33.720Z,83.69
2022-11-24T08:10:00.703Z,83.69
2022-11-24T08:12:29.875Z,83.97
2022-11-24T08:14:56.824Z,83.90
2022-11-24T08:17:23.889Z,83.64
2022-11-24T08:19:50.912Z,83.65
2022-11-24T08:22:19.231Z,83.39
2022-11-24T08:24:49.857Z,83.51
2022-11-24T08:27:17.134Z,83.50
2022-11-24T08:29:44.795Z,83.64
2022-11-24T08:32:15.132Z,83.49
2022-11-24T08:34:45.986Z,83.06
2022-11-24T08:37:18.799Z,82.78
2022-11-24T08:39:45.991Z,82.64
2022-11-24T08:42:12.904Z,82.32
2022-11-24T08:44:39.775Z,82.18
2022-11-24T08:47:06.833Z,82.11
2022-11-24T08:49:33.755Z,81.90
2022-11-24T08:52:00.604Z,81.98
2022-11-24T08:54:28.232Z,81.70
2022-11-24T08:56:55.199Z,81.46
2022-11-24T08:59:22.188Z,81.50
2022-11-24T09:01:49.547Z,81.35
2022-11-24T09:04:16.633Z,81.76
2022-11-24T09:06:43.487Z,82.12
2022-11-24T09:09:14.430Z,81.93
2022-11-24T09:11:41.517Z,82.19
2022-11-24T09:14:08.479Z,82.45
2022-11-24T09:16:35.856Z,82.39
2022-11-24T09:19:04.073Z,82.31
2022-11-24T09:21:31.530Z,81.75
2022-11-24T09:23:58.431Z,81.78
2022-11-24T09:26:26.501Z,81.87
2022-11-24T09:28:56.914Z,81.87
2022-11-24T09:31:25.115Z,81.57
2022-11-24T09:33:52.639Z,81.43
2022-11-24T09:36:19.590Z,80.96
2022-11-24T09:38:46.518Z,80.57
2022-11-24T09:41:19.429Z,80.16
2022-11-24T09:43:49.474Z,80.01
2022-11-24T09:46:19.140Z,79.74
2022-11-24T09:48:50.265Z,79.30
2022-11-24T09:51:20.259Z,79.41
2022-11-24T09:53:48.996Z,79.03
2022-11-24T09:56:18.378Z,79.06
2022-11-24T09:58:54.927Z,79.18
2022-11-24T10:01:26.873Z,78.91
2022-11-24T10:03:54.523Z,78.82
2022-11-24T10:06:25.540Z,78.35
2022-11-24T10:09:05.734Z,77.55
2022-11-24T10:11:48.686Z,77.87
2022-11-24T10:14:19.041Z,77.96
2022-11-24T10:16:58.189Z,78.36
2022-11-24T10:19:36.312Z,78.24
2022-11-24T10:22:03.970Z,78.63
2022-11-24T10:24:50.703Z,78.92
2022-11-24T10:27:22.687Z,79.02
2022-11-24T10:29:50.156Z,79.02
2022-11-24T10:32:28.033Z,79.26
2022-11-24T10:34:55.132Z,79.24
2022-11-24T10:37:29.316Z,79.14
2022-11-24T10:40:00.887Z,79.36
2022-11-24T10:42:37.084Z,79.34
2022-11-24T10:45:17.410Z,79.41
2022-11-24T10:47:44.825Z,79.36
2022-11-24T10:50:22.267Z,79.50
2022-11-24T10:53:09.419Z,79.73
2022-11-24T10:55:54.484Z,79.70
2022-11-24T10:58:26.862Z,79.85
2022-11-24T11:00:58.973Z,79.98
2022-11-24T11:03:27.289Z,79.84
2022-11-24T11:05:55.820Z,79.98
2022-11-24T11:08:27.045Z,80.19
2022-11-24T11:11:15.071Z,80.18
2022-11-24T11:13:52.033Z,79.72
2022-11-24T11:16:26.343Z,80.00
2022-11-24T11:18:53.530Z,80.13
2022-11-24T11:21:39.880Z,80.09
2022-11-24T11:24:17.280Z,79.87
2022-11-24T11:26:44.811Z,80.17
2022-11-24T11:35:05.535Z,79.99
2022-11-24T11:37:32.465Z,80.11
2022-11-24T11:39:59.367Z,80.33
2022-11-24T11:43:00.737Z,80.29
2022-11-24T11:45:37.665Z,80.66
2022-11-24T11:48:05.886Z,80.82
2022-11-24T11:51:14.767Z,81.06
2022-11-24T11:53:36.922Z,81.23
2022-11-24T11:56:27.420Z,80.87
2022-11-24T11:59:05.033Z,81.21
2022-11-24T12:01:58.568Z,81.77
2022-11-24T12:04:40.629Z,82.12
2022-11-24T12:07:16.810Z,82.22
2022-11-24T12:09:55.965Z,82.33
2022-11-24T12:12:25.386Z,82.03
2022-11-24T12:14:55.235Z,82.34
2022-11-24T12:17:41.212Z,82.19
2022-11-24T12:20:10.541Z,82.19
2022-11-24T12:22:42.139Z,82.50
2022-11-24T12:25:29.182Z,82.40
2022-11-24T12:28:01.483Z,82.68
2022-11-24T12:30:30.820Z,82.47
2022-11-24T12:33:00.547Z,82.34
2022-11-24T12:35:45.999Z,82.67
2022-11-24T12:38:20.033Z,82.75
2022-11-24T12:41:33.554Z,82.95
2022-11-24T12:43:53.653Z,82.95
2022-11-24T12:46:33.489Z,83.26
2022-11-24T12:49:00.458Z,83.24
2022-11-24T12:51:35.937Z,83.20
2022-11-24T12:54:03.511Z,83.50
2022-11-24T12:56:49.068Z,83.51
2022-11-24T12:59:19.070Z,83.78
2022-11-24T13:01:51.441Z,83.69
2022-11-24T13:04:18.423Z,83.81
2022-11-24T13:06:55.003Z,83.80
2022-11-24T13:09:22.059Z,83.84
2022-11-24T13:11:49.821Z,83.84
2022-11-24T13:14:19.923Z,83.72
2022-11-24T13:17:21.822Z,83.74
2022-11-24T13:19:41.821Z,84.08
2022-11-24T13:22:09.056Z,83.92
2022-11-24T13:24:37.085Z,83.91
2022-11-24T13:27:13.455Z,83.92
2022-11-24T13:29:42.270Z,83.93
2022-11-24T13:32:11.975Z,84.04
2022-11-24T13:34:38.951Z,84.05
2022-11-24T13:37:35.490Z,84.30
2022-11-24T13:40:24.912Z,84.23
2022-11-24T13:42:54.948Z,84.44
2022-11-24T13:45:49.602Z,84.43
2022-11-24T13:48:19.568Z,84.43
2022-11-24T13:50:59.030Z,84.38
2022-11-24T13:53:29.162Z,84.62
2022-11-24T13:56:03.016Z,84.54
2022-11-24T13:58:31.343Z,84.63
2022-11-24T14:01:04.602Z,84.66
2022-11-24T14:03:32.624Z,84.49
2022-11-24T14:05:59.624Z,84.16
2022-11-24T14:08:45.176Z,84.47
2022-11-24T14:11:14.168Z,84.41
2022-11-24T14:13:40.954Z,84.77
2022-11-24T14:16:11.537Z,84.82
2022-11-24T14:18:39.244Z,84.70
2022-11-24T14:21:21.884Z,85.06
2022-11-24T14:23:53.266Z,85.17
2022-11-24T14:26:21.843Z,84.90
2022-11-24T14:28:48.980Z,85.27
2022-11-24T14:31:20.549Z,85.16
2022-11-24T14:33:47.978Z,85.14
2022-11-24T14:36:15.579Z,85.18
2022-11-24T14:38:42.784Z,85.64
2022-11-24T14:41:28.990Z,85.75
2022-11-24T14:44:06.324Z,85.54
2022-11-24T14:46:33.483Z,85.41
2022-11-24T14:49:00.404Z,85.37
2022-11-24T14:51:28.458Z,85.49
2022-11-24T14:54:02.838Z,85.55
2022-11-24T14:56:35.770Z,85.80
2022-11-24T14:59:03.488Z,86.19
2022-11-24T15:01:32.875Z,85.88
2022-11-24T15:04:32.833Z,86.07
2022-11-24T15:07:21.176Z,86.08
2022-11-24T15:09:51.352Z,86.18
2022-11-24T15:12:31.183Z,86.38
2022-11-24T15:14:59.338Z,86.56
2022-11-24T15:17:27.515Z,86.18
2022-11-24T15:19:57.121Z,86.38
2022-11-24T15:22:27.473Z,86.37
2022-11-24T15:24:54.629Z,86.40
2022-11-24T15:27:21.687Z,86.55
2022-11-24T15:29:48.468Z,86.56
2022-11-24T15:32:15.771Z,86.43
2022-11-24T15:34:43.040Z,86.12
2022-11-24T15:37:10.039Z,86.43
2022-11-24T15:39:37.259Z,86.17
2022-11-24T15:42:05.244Z,86.31
2022-11-24T15:44:33.248Z,86.55
2022-11-24T15:47:01.672Z,86.29
2022-11-24T15:49:28.820Z,86.34
2022-11-24T15:51:55.692Z,86.02
2022-11-24T15:54:23.999Z,85.97
2022-11-24T15:56:51.124Z,85.95
2022-11-24T15:59:20.575Z,85.83
2022-11-24T16:01:50.032Z,86.00
2022-11-24T16:04:17.200Z,85.88
2022-11-24T16:06:44.184Z,85.91
2022-11-24T16:09:12.940Z,86.01
2022-11-24T16:11:40.669Z,86.08
2022-11-24T16:14:07.719Z,85.83
2022-11-24T16:16:34.993Z,85.85
2022-11-24T16:19:02.014Z,85.92
2022-11-24T16:21:38.575Z,86.03
2022-11-24T16:24:05.720Z,86.14
2022-11-24T16:26:41.299Z,85.90
2022-11-24T16:29:08.853Z,85.99
2022-11-24T16:31:36.672Z,86.07
2022-11-24T16:34:04.502Z,86.06
2022-11-24T16:36:38.205Z,86.02
2022-11-24T16:39:05.333Z,86.00
2022-11-24T16:41:33.356Z,86.16
2022-11-24T16:44:10.652Z,86.29
2022-11-24T16:46:38.008Z,86.29
2022-11-24T16:49:05.261Z,86.03
2022-11-24T16:51:34.995Z,85.98
2022-11-24T16:54:04.195Z,86.27
2022-11-24T16:56:33.084Z,86.29
2022-11-24T16:59:00.369Z,86.28
2022-11-24T17:01:28.066Z,86.05
2022-11-24T17:03:55.577Z,86.14
2022-11-24T17:06:22.656Z,86.49
2022-11-24T17:08:49.714Z,86.54
2022-11-24T17:11:22.536Z,86.24
2022-11-24T17:14:11.186Z,86.58
2022-11-24T17:16:38.643Z,86.68
2022-11-24T17:19:06.973Z,86.70
2022-11-24T17:21:33.919Z,86.51
2022-11-24T17:24:01.952Z,86.38
2022-11-24T17:26:36.952Z,86.44
2022-11-24T17:37:29.583Z,86.48
2022-11-24T17:40:26.962Z,86.39
2022-11-24T17:42:53.533Z,86.50
2022-11-24T17:45:23.013Z,86.11
2022-11-24T17:50:45.992Z,86.36
2022-11-24T17:53:16.036Z,86.07
2022-11-24T17:56:10.183Z,86.06
2022-11-24T17:58:43.980Z,86.34
2022-11-24T18:01:14.252Z,86.66
2022-11-24T18:03:53.189Z,86.69
2022-11-24T18:06:25.803Z,86.82
2022-11-24T18:11:58.185Z,86.94
2022-11-24T18:14:36.936Z,86.86
2022-11-24T18:17:32.133Z,86.56
2022-11-24T18:20:00.097Z,86.57
2022-11-24T18:22:50.068Z,86.51
2022-11-24T18:25:14.730Z,86.75
2022-11-24T18:30:24.824Z,86.66
2022-11-24T18:32:51.849Z,86.43
2022-11-24T18:35:18.887Z,86.40
2022-11-24T18:37:46.066Z,86.42
2022-11-24T18:42:59.151Z,86.42
2022-11-24T18:45:28.763Z,86.69
2022-11-24T18:47:56.916Z,86.79
2022-11-24T18:50:29.595Z,86.70
2022-11-24T18:52:59.615Z,86.70
2022-11-24T18:55:27.257Z,86.68
2022-11-24T18:57:56.346Z,86.65
2022-11-24T19:00:24.627Z,86.90
2022-11-24T19:06:14.082Z,86.75
2022-11-24T19:08:41.155Z,86.88
2022-11-24T19:11:10.960Z,86.79
2022-11-24T19:13:37.931Z,86.71
2022-11-24T19:16:11.307Z,86.70
2022-11-24T19:18:40.701Z,86.82
2022-11-24T19:23:48.797Z,86.88
2022-11-24T19:26:16.083Z,86.99
2022-11-24T19:28:43.636Z,86.71
2022-11-24T19:31:12.187Z,86.93
2022-11-24T19:33:40.566Z,86.88
2022-11-24T19:36:08.600Z,86.82
2022-11-24T19:38:46.236Z,86.83
2022-11-24T19:44:14.631Z,86.99
2022-11-24T19:46:48.502Z,87.08
2022-11-24T19:49:25.482Z,87.18
2022-11-24T19:51:53.691Z,87.30
2022-11-24T19:54:21.006Z,87.31
2022-11-24T19:56:57.658Z,87.50
2022-11-24T19:59:26.607Z,87.46
2022-11-24T20:01:54.525Z,87.42
2022-11-24T20:04:21.728Z,87.47
2022-11-24T20:06:48.833Z,87.46
2022-11-24T20:09:17.032Z,87.49
2022-11-24T20:14:36.978Z,87.32
2022-11-24T20:17:10.708Z,87.13
2022-11-24T20:19:40.437Z,87.17
2022-11-24T20:22:11.617Z,86.71
2022-11-24T20:24:52.131Z,86.67
2022-11-24T20:27:26.655Z,86.76
2022-11-24T20:29:55.003Z,86.72
2022-11-24T20:32:22.542Z,86.90
2022-11-24T20:34:50.855Z,86.73
2022-11-24T20:37:19.052Z,86.97
2022-11-24T20:39:46.459Z,86.69
2022-11-24T20:44:54.093Z,86.32
2022-11-24T20:47:21.137Z,86.46
2022-11-24T20:49:48.047Z,86.18
2022-11-24T20:52:14.923Z,86.14
2022-11-24T20:54:45.150Z,86.18
2022-11-24T20:57:15.162Z,86.00
2022-11-24T20:59:43.146Z,85.98
2022-11-24T21:02:10.869Z,86.07
2022-11-24T21:04:49.612Z,85.89
2022-11-24T21:12:43.372Z,86.19
2022-11-24T21:15:10.323Z,86.16
2022-11-24T21:17:37.193Z,86.06
2022-11-24T21:20:04.627Z,86.25
2022-11-24T21:22:32.664Z,86.19
2022-11-24T21:25:01.792Z,86.35
2022-11-24T21:27:31.339Z,86.28
2022-11-24T21:29:58.309Z,86.26
2022-11-24T21:32:26.708Z,86.30
2022-11-24T21:34:53.952Z,86.36
2022-11-24T21:37:20.950Z,86.58
2022-11-24T21:39:51.190Z,86.53
2022-11-24T21:42:18.164Z,86.77
2022-11-24T21:44:45.000Z,86.75
2022-11-24T21:47:36.695Z,86.49
2022-11-24T21:50:04.113Z,86.65
2022-11-24T21:52:30.943Z,86.48
2022-11-24T21:54:58.079Z,86.49
2022-11-24T21:57:24.983Z,86.58
2022-11-24T21:59:51.863Z,86.67
2022-11-24T22:02:19.183Z,86.78
2022-11-24T22:04:46.098Z,86.52
2022-11-24T22:07:13.166Z,86.39
2022-11-24T22:09:39.998Z,86.48
2022-11-24T22:12:07.060Z,86.14
2022-11-24T22:14:37.502Z,86.37
2022-11-24T22:17:06.931Z,86.08
2022-11-24T22:19:33.809Z,86.01
2022-11-24T22:22:00.640Z,85.83
2022-11-24T22:24:27.596Z,85.93
2022-11-24T22:26:54.893Z,85.96
2022-11-24T22:29:21.753Z,86.17
2022-11-24T22:31:48.811Z,86.14
2022-11-24T22:34:15.905Z,85.71
2022-11-24T22:36:42.660Z,85.56
2022-11-24T22:39:11.144Z,85.82
2022-11-24T22:41:38.209Z,85.82
2022-11-24T22:44:05.232Z,85.85
2022-11-24T22:46:32.370Z,86.05
2022-11-24T22:48:59.996Z,85.88
2022-11-24T22:51:27.685Z,85.93
2022-11-24T22:53:56.964Z,85.96
2022-11-24T22:56:24.094Z,85.81
2022-11-24T22:58:53.431Z,85.67
2022-11-24T23:01:21.395Z,85.73
2022-11-24T23:03:49.110Z,85.54
2022-11-24T23:06:21.940Z,85.52
2022-11-24T23:08:49.029Z,85.68
2022-11-24T23:11:17.874Z,85.75
2022-11-24T23:13:44.954Z,85.76
2022-11-24T23:16:13.634Z,86.04
2022-11-24T23:18:40.745Z,85.67
2022-11-24T23:21:08.451Z,85.90
2022-11-24T23:23:35.381Z,85.80
2022-11-24T23:26:08.218Z,85.95
2022-11-24T23:28:36.663Z,85.96
2022-11-24T23:31:07.634Z,86.20
2022-11-24T23:33:34.499Z,86.25
2022-11-24T23:36:20.506Z,86.42
2022-11-24T23:38:47.939Z,86.52
2022-11-24T23:41:16.815Z,86.64
2022-11-24T23:43:44.090Z,86.86
2022-11-24T23:46:12.193Z,86.93
2022-11-24T23:48:40.554Z,87.30
2022-11-24T23:51:08.348Z,87.05
2022-11-24T23:53:35.536Z,87.17
2022-11-24T23:56:02.692Z,87.04
2022-11-24T23:58:29.871Z,87.11
